Thursday, June 29, 2017, 10:17 AM EDT

KDOV, Dover Air Force Base

Location: Dover, DE, United States Lat: 39.133
Local Time: 10:17 AM EDT (14:17 GMT) Lon: -75.467
Time Zone: US/Eastern Elev: 29 ft

Show me the last for .
Show Decoded

2017-06-29 09:58 METAR KDOV 291358Z 18016KT 9SM CLR 28/16 A3014 RMK AO2A SLPNO PWINO PNO FZRANO
                 TSNO VISNO RWY01 CHINO RWY01 $ =
2017-06-29 08:58 METAR KDOV 291258Z AUTO 19014KT 10SM CLR 23/20 A3016 RMK AO2 SLP216 T02330198 =
2017-06-29 07:58 METAR KDOV 291158Z AUTO 20011KT 10SM CLR 21/20 A3017 RMK AO2 SLP220 T02130196
                 10213 20166 50003 =
2017-06-29 06:58 METAR KDOV 291058Z AUTO 18005KT 10SM CLR 19/19 A3017 RMK AO2 SLP220 T01860186 $
                 =
2017-06-29 05:58 METAR KDOV 290958Z AUTO 19004KT 10SM CLR 18/18 A3017 RMK AO2 SLP220 T01770177 $
                 =
2017-06-29 04:58 METAR KDOV 290858Z AUTO 18008KT 10SM CLR 18/18 A3016 RMK AO2 SLP216 T01780178
                 50003 $ =
2017-06-29 03:58 METAR KDOV 290758Z AUTO 17005KT 10SM CLR 17/17 A3016 RMK AO2 SLP216 T01690168 $
                 =
2017-06-29 02:58 METAR KDOV 290658Z AUTO 20006KT 10SM CLR 18/17 A3016 RMK AO2 SLP216 T01820171 $
                 =
2017-06-29 01:58 METAR KDOV 290558Z AUTO 18006KT 10SM CLR 17/17 A3015 RMK AO2 SLP213 T01720166
                 10221 20171 55004 $ =
2017-06-29 00:58 METAR KDOV 290458Z AUTO 17006KT 10SM CLR 17/17 A3016 RMK AO2 SLP216 T01740169
                 402640144 $ =
2017-06-28 23:58 METAR KDOV 290358Z COR AUTO 18006KT 10SM CLR 18/17 A3016 RMK AO2 SLP216
                 T01790170 $ COR 0410 =
2017-06-28 22:58 METAR KDOV 290258Z AUTO 17005KT 10SM CLR 19/16 A3016 RMK AO2 SLP216 T01860163
                 53009 $ =
2017-06-28 21:58 METAR KDOV 290158Z AUTO 17007KT 10SM CLR 20/16 A3015 RMK AO2 SLP213 T01990156 $
                 =
2017-06-28 21:48 METAR KDOV 290148Z AUTO 17008KT 10SM CLR 20/16 A3015 RMK AO2 SLP213 =
2017-06-28 21:43 METAR KDOV 290143Z AUTO 17008KT 8SM R01/5500FT CLR 20/16 A3015 RMK AO2 SLP213 =
2017-06-28 21:33 METAR KDOV 290133Z AUTO 17007KT 6SM R01/5000FT HZ CLR 20/16 A3015 RMK AO2 SLP213
                 =
2017-06-28 21:13 METAR KDOV 290113Z AUTO 16008KT 9SM R01/5500FT CLR 21/16 A3014 RMK AO2 SLP209 =
2017-06-28 20:58 METAR KDOV 290058Z AUTO 15008KT 10SM CLR 21/15 A3013 RMK AO2 SLP206 T02050154 $
                 =
2017-06-28 19:58 METAR KDOV 282358Z AUTO 00000KT 10SM CLR 22/15 A3013 RMK AO2 SLP206 T02220151
                 10264 20222 55004 $ =
2017-06-28 18:58 METAR KDOV 282258Z AUTO 19006KT 10SM CLR 26/12 A3013 RMK AO2 SLP206 T02550116 $
                 =
2017-06-28 17:58 METAR KDOV 282158Z AUTO 20005KT 10SM CLR 26/12 A3013 RMK AO2 SLP206 T02610120 $
                 =
2017-06-28 16:58 METAR KDOV 282058Z AUTO 26005KT 10SM CLR 26/12 A3015 RMK AO2 SLP213 T02610118
                 53002 $ =
2017-06-28 15:58 METAR KDOV 281958Z AUTO 26004KT 10SM CLR 26/12 A3015 RMK AO2 SLP213 T02610123 $
                 =
2017-06-28 14:58 METAR KDOV 281858Z AUTO 36006KT 10SM CLR 26/12 A3014 RMK AO2 SLP209 T02560118 $
                 =
2017-06-28 13:58 METAR KDOV 281758Z AUTO 28010KT 10SM CLR 25/11 A3014 RMK AO2 SLP209 T02510113
                 10252 20191 55010 $ =
2017-06-28 12:58 METAR KDOV 281658Z AUTO 29008KT 10SM CLR 24/10 A3017 RMK AO2 SLP220 T02440097 $
                 =
2017-06-28 11:58 METAR KDOV 281558Z AUTO 29008KT 10SM CLR 24/11 A3017 RMK AO2 SLP220 T02380113 $
                 =
2017-06-28 10:58 METAR KDOV 281458Z AUTO 31008KT 10SM CLR 23/11 A3017 RMK AO2 SLP220 T02310114
                 50007 $ =

Support USWX by starting your Amazon purchase here.